Calypso — IYQT — position and weather

sailwx.info

Track history (hours):
 
Tides and Currents Weather Stations Pressure Air Temp Water Temp Dewpoint Dewpoint Depression Visibility Wind Speed Wind Dir Waves Ship Positions

Calypso

Last reported at 2016-May-31 17:33 UTC. Time now 2016-May-31 19:59 UTC.
Position N 38°00' E 012°30'.

Length 31 m; draft 4.2 m.

MMSI: 247143200.

Date/timePositionNaut miles runAvg speedWind from/ knotsBaromVisibWave heightAir tempDewpointWater temp
2016-May-31 17:33N 38°00' E 012°30'1 0.9
2016-May-31 16:34N 38°01' E 012°30'8 7.9
2016-May-31 15:33N 37°59' E 012°21'9 8.6
2016-May-31 14:30N 37°58' E 012°09'1718.0
2016-May-31 13:33N 38°01' E 012°30'8 8.0
2016-May-31 12:34N 37°59' E 012°21'8 8.2
2016-May-31 11:33N 38°01' E 012°31'0 0.0
2016-May-31 10:33N 38°01' E 012°31'0 0.0
2016-May-31 09:33N 38°01' E 012°31'1010.0
2016-May-31 08:34N 37°56' E 012°20'7 7.2
2016-May-31 07:33N 37°58' E 012°11'1616.1
2016-May-31 06:34N 38°01' E 012°31'0 0.0
2016-May-31 04:33N 38°01' E 012°31'2 0.2
2016-May-30 17:33N 37°60' E 012°28'2 2.3
2016-May-30 16:33N 38°01' E 012°30'8 8.0
2016-May-30 15:33N 37°59' E 012°20'1111.2
2016-May-30 14:33N 37°58' E 012°06'1919.4
2016-May-30 13:34N 38°01' E 012°31'8 8.1
2016-May-30 12:33N 37°59' E 012°21'8 8.2
2016-May-30 11:33N 38°01' E 012°31'0 0.0
2016-May-30 10:33N 38°01' E 012°31'0 0.0
2016-May-30 09:34N 38°01' E 012°31'10 9.9
2016-May-30 08:33N 37°56' E 012°20'5 4.2
2016-May-30 07:26N 37°58' E 012°14'1314.7
2016-May-30 06:33N 38°00' E 012°30'9 9.1
2016-May-30 05:34N 37°57' E 012°19'10 9.6
2016-May-30 04:33N 38°01' E 012°31'4 0.4
2016-May-29 17:34N 37°59' E 012°26'4 4.3
2016-May-29 16:33N 38°01' E 012°31'8 8.2
2016-May-29 15:33N 37°59' E 012°20'1010.2
2016-May-29 14:33N 37°58' E 012°08'1818.6
2016-May-29 13:34N 38°01' E 012°31'8 8.1
2016-May-29 12:33N 37°59' E 012°20'8 8.2
2016-May-29 11:34N 38°01' E 012°31'0 0.0
2016-May-29 10:33N 38°01' E 012°31'0 0.1
2016-May-29 07:33N 38°01' E 012°31'0 0.0
2016-May-28 13:33N 38°01' E 012°31'8 8.2
2016-May-28 12:33N 37°59' E 012°21'8 8.2
2016-May-28 11:33N 38°01' E 012°31'0 0.0
2016-May-28 10:33N 38°01' E 012°31'0 0.0
2016-May-28 09:33N 38°01' E 012°31'10 9.9
2016-May-28 08:33N 37°56' E 012°20'8 8.6
2016-May-28 07:33N 37°59' E 012°09'1616.4
2016-May-28 06:33N 38°00' E 012°30'8 7.9
2016-May-28 05:34N 37°58' E 012°20'9 8.6
2016-May-28 04:33N 38°01' E 012°31'5 0.5
2016-May-27 17:33N 37°59' E 012°24'5 5.5
2016-May-27 16:33N 38°01' E 012°31'8 8.2
2016-May-27 15:34N 37°59' E 012°20'7 6.8
2016-May-27 14:31N 37°59' E 012°11'1516.0
2016-May-27 13:34N 38°01' E 012°31'9 8.5
2016-May-27 12:34N 37°59' E 012°20'9 8.6
2016-May-27 11:33N 38°01' E 012°31'0 0.0
2016-May-27 10:33N 38°01' E 012°31'0 0.0
2016-May-27 09:33N 38°01' E 012°31'1010.1
2016-May-27 08:33N 37°56' E 012°19'1010.0
2016-May-27 07:33N 37°58' E 012°07'1817.7
2016-May-27 06:34N 38°00' E 012°29'8 7.9
2016-May-27 05:34N 37°58' E 012°20'9 9.1
2016-May-27 04:33N 38°01' E 012°31'4 0.4
2016-May-26 17:33N 37°59' E 012°26'4 4.3
2016-May-26 16:33N 38°01' E 012°31'8 8.2
2016-May-26 15:33N 37°59' E 012°21'1010.3
2016-May-26 14:33N 37°58' E 012°08'1818.3
2016-May-26 13:33N 38°01' E 012°30'10 9.9
2016-May-26 12:33N 37°56' E 012°19'1010.1
2016-May-26 11:33N 38°01' E 012°31'0 0.0
2016-May-26 10:33N 38°01' E 012°31'0 0.0
2016-May-26 09:33N 38°01' E 012°31'1010.0
2016-May-26 08:33N 37°56' E 012°19'8 8.1
2016-May-26 07:33N 37°58' E 012°10'1616.3
2016-May-26 06:33N 38°00' E 012°30'8 8.4
2016-May-26 05:33N 37°58' E 012°20'9 9.0
2016-May-26 04:33N 38°01' E 012°31'2 0.2
2016-May-25 17:33N 37°60' E 012°28'2 2.1
2016-May-25 16:34N 38°01' E 012°30'8 8.0
2016-May-25 15:33N 37°59' E 012°21'1211.6
2016-May-25 14:33N 37°58' E 012°06'2020.0
2016-May-25 13:33N 38°01' E 012°30'8 8.0
2016-May-25 12:34N 37°59' E 012°21'8 8.2
2016-May-25 11:33N 38°01' E 012°31'0 0.0
2016-May-25 10:33N 38°01' E 012°31'0 0.0
2016-May-25 09:33N 38°01' E 012°31'1010.0
2016-May-25 08:33N 37°56' E 012°20'6 6.5
2016-May-25 07:33N 37°58' E 012°12'1514.9
2016-May-25 06:34N 38°01' E 012°30'9 9.2
2016-May-25 05:33N 37°58' E 012°19'9 9.3
2016-May-25 04:33N 38°01' E 012°31'7 0.6
2016-May-24 17:33N 37°59' E 012°22'7 7.0
2016-May-24 16:33N 38°01' E 012°31'8 8.2
2016-May-24 15:33N 37°59' E 012°21'6 5.8
2016-May-24 14:27N 37°57' E 012°13'1416.2
2016-May-24 13:33N 38°01' E 012°30'8 8.3
2016-May-24 12:33N 37°59' E 012°20'9 8.5
2016-May-24 11:34N 38°01' E 012°31'8 8.2
2016-May-24 10:33N 37°59' E 012°20'8 8.2
2016-May-24 09:33N 38°01' E 012°31'8 8.2
2016-May-24 08:33N 37°59' E 012°21'5 4.8
2016-May-24 07:33N 37°60' E 012°14'1312.8
2016-May-24 06:33N 38°01' E 012°31'9 9.0
2016-May-24 05:34N 37°58' E 012°20'9 8.9
2016-May-24 04:33N 38°01' E 012°31'5 0.4
2016-May-23 17:34N 37°59' E 012°25'5 4.6
2016-May-23 16:33N 38°01' E 012°31'8 8.2
2016-May-23 15:34N 37°59' E 012°21'6 6.4
2016-May-23 14:34N 37°60' E 012°12'1414.4
2016-May-23 13:33N 38°01' E 012°31'8 8.2
2016-May-23 12:33N 37°59' E 012°20'8 8.1
2016-May-23 11:33N 38°01' E 012°31'0 0.0
2016-May-23 10:33N 38°01' E 012°31'0 0.0
2016-May-23 09:33N 38°01' E 012°31'8 8.2
2016-May-23 08:33N 37°59' E 012°21'6 6.1
2016-May-23 07:34N 38°00' E 012°13'1414.0
2016-May-23 06:34N 38°01' E 012°31'8 8.1
2016-May-23 05:33N 37°59' E 012°21'8 8.0
2016-May-23 04:33N 38°01' E 012°31'8 0.7
2016-May-22 17:34N 37°59' E 012°21'8 8.0
2016-May-22 16:34N 38°01' E 012°31'8 8.2
2016-May-22 15:33N 37°59' E 012°20'1110.6
2016-May-22 14:34N 37°58' E 012°07'1918.6
2016-May-22 13:33N 38°01' E 012°30'8 7.9
2016-May-22 12:33N 37°59' E 012°21'8 8.2
2016-May-22 11:34N 38°01' E 012°31'0 0.0
2016-May-22 10:33N 38°01' E 012°31'0 0.0
2016-May-22 09:33N 38°01' E 012°31'8 7.5
2016-May-22 08:33N 37°57' E 012°22'1313.4
2016-May-22 07:33N 37°58' E 012°05'1818.1
2016-May-22 06:33N 37°59' E 012°28'6 6.4
2016-May-22 05:33N 37°58' E 012°20'9 9.0
2016-May-22 04:33N 38°01' E 012°31'4 0.3
2016-May-21 17:33N 37°59' E 012°26'  
Track history (hours):
 
Tides and Currents Weather Stations Pressure Air Temp Water Temp Dewpoint Dewpoint Depression Visibility Wind Speed Wind Dir Waves Ship Positions

Calypso

Last reported at 2016-May-31 17:33 UTC. Time now 2016-May-31 19:59 UTC.
Position N 38°00' E 012°30'.

Length 31 m; draft 4.2 m.

MMSI: 247143200.

Date/timePositionNaut miles runAvg speedWind from/ knotsBaromVisibWave heightAir tempDewpointWater temp
2016-May-31 17:33N 38°00' E 012°30'1 0.9
2016-May-31 16:34N 38°01' E 012°30'8 7.9
2016-May-31 15:33N 37°59' E 012°21'9 8.6
2016-May-31 14:30N 37°58' E 012°09'1718.0
2016-May-31 13:33N 38°01' E 012°30'8 8.0
2016-May-31 12:34N 37°59' E 012°21'8 8.2
2016-May-31 11:33N 38°01' E 012°31'0 0.0
2016-May-31 10:33N 38°01' E 012°31'0 0.0
2016-May-31 09:33N 38°01' E 012°31'1010.0
2016-May-31 08:34N 37°56' E 012°20'7 7.2
2016-May-31 07:33N 37°58' E 012°11'1616.1
2016-May-31 06:34N 38°01' E 012°31'0 0.0
2016-May-31 04:33N 38°01' E 012°31'2 0.2
2016-May-30 17:33N 37°60' E 012°28'2 2.3
2016-May-30 16:33N 38°01' E 012°30'8 8.0
2016-May-30 15:33N 37°59' E 012°20'1111.2
2016-May-30 14:33N 37°58' E 012°06'1919.4
2016-May-30 13:34N 38°01' E 012°31'8 8.1
2016-May-30 12:33N 37°59' E 012°21'8 8.2
2016-May-30 11:33N 38°01' E 012°31'0 0.0
2016-May-30 10:33N 38°01' E 012°31'0 0.0
2016-May-30 09:34N 38°01' E 012°31'10 9.9
2016-May-30 08:33N 37°56' E 012°20'5 4.2
2016-May-30 07:26N 37°58' E 012°14'1314.7
2016-May-30 06:33N 38°00' E 012°30'9 9.1
2016-May-30 05:34N 37°57' E 012°19'10 9.6
2016-May-30 04:33N 38°01' E 012°31'4 0.4
2016-May-29 17:34N 37°59' E 012°26'4 4.3
2016-May-29 16:33N 38°01' E 012°31'8 8.2
2016-May-29 15:33N 37°59' E 012°20'1010.2
2016-May-29 14:33N 37°58' E 012°08'1818.6
2016-May-29 13:34N 38°01' E 012°31'8 8.1
2016-May-29 12:33N 37°59' E 012°20'8 8.2
2016-May-29 11:34N 38°01' E 012°31'0 0.0
2016-May-29 10:33N 38°01' E 012°31'0 0.1
2016-May-29 07:33N 38°01' E 012°31'0 0.0
2016-May-28 13:33N 38°01' E 012°31'8 8.2
2016-May-28 12:33N 37°59' E 012°21'8 8.2
2016-May-28 11:33N 38°01' E 012°31'0 0.0
2016-May-28 10:33N 38°01' E 012°31'0 0.0
2016-May-28 09:33N 38°01' E 012°31'10 9.9
2016-May-28 08:33N 37°56' E 012°20'8 8.6
2016-May-28 07:33N 37°59' E 012°09'1616.4
2016-May-28 06:33N 38°00' E 012°30'8 7.9
2016-May-28 05:34N 37°58' E 012°20'9 8.6
2016-May-28 04:33N 38°01' E 012°31'5 0.5
2016-May-27 17:33N 37°59' E 012°24'5 5.5
2016-May-27 16:33N 38°01' E 012°31'8 8.2
2016-May-27 15:34N 37°59' E 012°20'7 6.8
2016-May-27 14:31N 37°59' E 012°11'1516.0
2016-May-27 13:34N 38°01' E 012°31'9 8.5
2016-May-27 12:34N 37°59' E 012°20'9 8.6
2016-May-27 11:33N 38°01' E 012°31'0 0.0
2016-May-27 10:33N 38°01' E 012°31'0 0.0
2016-May-27 09:33N 38°01' E 012°31'1010.1
2016-May-27 08:33N 37°56' E 012°19'1010.0
2016-May-27 07:33N 37°58' E 012°07'1817.7
2016-May-27 06:34N 38°00' E 012°29'8 7.9
2016-May-27 05:34N 37°58' E 012°20'9 9.1
2016-May-27 04:33N 38°01' E 012°31'4 0.4
2016-May-26 17:33N 37°59' E 012°26'4 4.3
2016-May-26 16:33N 38°01' E 012°31'8 8.2
2016-May-26 15:33N 37°59' E 012°21'1010.3
2016-May-26 14:33N 37°58' E 012°08'1818.3
2016-May-26 13:33N 38°01' E 012°30'10 9.9
2016-May-26 12:33N 37°56' E 012°19'1010.1
2016-May-26 11:33N 38°01' E 012°31'0 0.0
2016-May-26 10:33N 38°01' E 012°31'0 0.0
2016-May-26 09:33N 38°01' E 012°31'1010.0
2016-May-26 08:33N 37°56' E 012°19'8 8.1
2016-May-26 07:33N 37°58' E 012°10'1616.3
2016-May-26 06:33N 38°00' E 012°30'8 8.4
2016-May-26 05:33N 37°58' E 012°20'9 9.0
2016-May-26 04:33N 38°01' E 012°31'2 0.2
2016-May-25 17:33N 37°60' E 012°28'2 2.1
2016-May-25 16:34N 38°01' E 012°30'8 8.0
2016-May-25 15:33N 37°59' E 012°21'1211.6
2016-May-25 14:33N 37°58' E 012°06'2020.0
2016-May-25 13:33N 38°01' E 012°30'8 8.0
2016-May-25 12:34N 37°59' E 012°21'8 8.2
2016-May-25 11:33N 38°01' E 012°31'0 0.0
2016-May-25 10:33N 38°01' E 012°31'0 0.0
2016-May-25 09:33N 38°01' E 012°31'1010.0
2016-May-25 08:33N 37°56' E 012°20'6 6.5
2016-May-25 07:33N 37°58' E 012°12'1514.9
2016-May-25 06:34N 38°01' E 012°30'9 9.2
2016-May-25 05:33N 37°58' E 012°19'9 9.3
2016-May-25 04:33N 38°01' E 012°31'7 0.6
2016-May-24 17:33N 37°59' E 012°22'7 7.0
2016-May-24 16:33N 38°01' E 012°31'8 8.2
2016-May-24 15:33N 37°59' E 012°21'6 5.8
2016-May-24 14:27N 37°57' E 012°13'1416.2
2016-May-24 13:33N 38°01' E 012°30'8 8.3
2016-May-24 12:33N 37°59' E 012°20'9 8.5
2016-May-24 11:34N 38°01' E 012°31'8 8.2
2016-May-24 10:33N 37°59' E 012°20'8 8.2
2016-May-24 09:33N 38°01' E 012°31'8 8.2
2016-May-24 08:33N 37°59' E 012°21'5 4.8
2016-May-24 07:33N 37°60' E 012°14'1312.8
2016-May-24 06:33N 38°01' E 012°31'9 9.0
2016-May-24 05:34N 37°58' E 012°20'9 8.9
2016-May-24 04:33N 38°01' E 012°31'5 0.4
2016-May-23 17:34N 37°59' E 012°25'5 4.6
2016-May-23 16:33N 38°01' E 012°31'8 8.2
2016-May-23 15:34N 37°59' E 012°21'6 6.4
2016-May-23 14:34N 37°60' E 012°12'1414.4
2016-May-23 13:33N 38°01' E 012°31'8 8.2
2016-May-23 12:33N 37°59' E 012°20'8 8.1
2016-May-23 11:33N 38°01' E 012°31'0 0.0
2016-May-23 10:33N 38°01' E 012°31'0 0.0
2016-May-23 09:33N 38°01' E 012°31'8 8.2
2016-May-23 08:33N 37°59' E 012°21'6 6.1
2016-May-23 07:34N 38°00' E 012°13'1414.0
2016-May-23 06:34N 38°01' E 012°31'8 8.1
2016-May-23 05:33N 37°59' E 012°21'8 8.0
2016-May-23 04:33N 38°01' E 012°31'8 0.7
2016-May-22 17:34N 37°59' E 012°21'8 8.0
2016-May-22 16:34N 38°01' E 012°31'8 8.2
2016-May-22 15:33N 37°59' E 012°20'1110.6
2016-May-22 14:34N 37°58' E 012°07'1918.6
2016-May-22 13:33N 38°01' E 012°30'8 7.9
2016-May-22 12:33N 37°59' E 012°21'8 8.2
2016-May-22 11:34N 38°01' E 012°31'0 0.0
2016-May-22 10:33N 38°01' E 012°31'0 0.0
2016-May-22 09:33N 38°01' E 012°31'8 7.5
2016-May-22 08:33N 37°57' E 012°22'1313.4
2016-May-22 07:33N 37°58' E 012°05'1818.1
2016-May-22 06:33N 37°59' E 012°28'6 6.4
2016-May-22 05:33N 37°58' E 012°20'9 9.0
2016-May-22 04:33N 38°01' E 012°31'4 0.3
2016-May-21 17:33N 37°59' E 012°26'  

Dump ship's entire track history